createdAt,value
2019-01-13T00:01:04.858Z,1.30
2019-01-13T00:09:43.206Z,1.40
2019-01-13T00:15:22.160Z,1.70
2019-01-13T00:18:02.796Z,1.30
2019-01-13T00:20:43.536Z,1.40
2019-01-13T00:26:37.016Z,1.50
2019-01-13T00:29:17.814Z,2.00
2019-01-13T00:34:56.976Z,1.40
2019-01-13T00:40:36.395Z,1.50
2019-01-13T00:43:17.264Z,1.50
2019-01-13T00:45:57.982Z,1.50
2019-01-13T00:51:37.878Z,1.60
2019-01-13T01:06:12.113Z,1.60
2019-01-13T01:17:48.355Z,1.90
2019-01-13T01:20:28.970Z,1.80
2019-01-13T01:28:50.130Z,1.70
2019-01-13T01:34:43.774Z,1.60
2019-01-13T01:37:24.453Z,1.70
2019-01-13T01:40:05.187Z,1.90
2019-01-13T01:45:44.039Z,1.70
2019-01-13T01:51:37.838Z,1.80
2019-01-13T01:57:31.325Z,1.90
2019-01-13T02:00:11.833Z,2.00
2019-01-13T02:02:52.599Z,1.90
2019-01-13T02:05:33.379Z,1.90
2019-01-13T02:08:14.111Z,2.00
2019-01-13T02:10:55.005Z,2.00
2019-01-13T02:13:35.518Z,2.00
2019-01-13T02:16:16.507Z,2.00
2019-01-13T02:18:56.963Z,2.00
2019-01-13T02:21:37.801Z,2.00
2019-01-13T02:24:18.398Z,2.00
2019-01-13T02:26:59.621Z,2.00
2019-01-13T02:32:53.057Z,2.00
2019-01-13T02:35:33.627Z,2.00
2019-01-13T02:38:14.561Z,2.00
2019-01-13T02:40:55.422Z,2.00
2019-01-13T02:43:36.125Z,2.00
2019-01-13T02:46:16.933Z,2.00
2019-01-13T02:48:57.902Z,2.00
2019-01-13T02:51:38.578Z,2.00
2019-01-13T02:54:19.211Z,2.00
2019-01-13T02:57:00.015Z,2.10
2019-01-13T02:59:40.892Z,2.00
2019-01-13T03:02:21.273Z,2.00
2019-01-13T03:05:02.160Z,2.00
2019-01-13T03:07:43.438Z,2.00
2019-01-13T03:10:23.953Z,2.00
2019-01-13T03:13:04.563Z,2.00
2019-01-13T03:15:45.257Z,2.00
2019-01-13T03:18:26.004Z,2.20
2019-01-13T03:21:07.168Z,2.00
2019-01-13T03:23:48.171Z,2.00
2019-01-13T03:26:29.265Z,2.00
2019-01-13T03:29:09.909Z,2.00
2019-01-13T03:31:50.469Z,2.00
2019-01-13T03:34:30.989Z,2.00
2019-01-13T03:37:12.154Z,1.90
2019-01-13T03:39:53.065Z,1.70
2019-01-13T03:42:33.957Z,1.70
2019-01-13T03:45:14.518Z,1.70
2019-01-13T03:47:55.445Z,1.70
2019-01-13T03:50:36.478Z,1.70
2019-01-13T03:53:17.270Z,1.80
2019-01-13T03:55:58.290Z,1.50
2019-01-13T03:58:39.334Z,1.80
2019-01-13T04:01:20.244Z,1.80
2019-01-13T04:04:01.328Z,1.80
2019-01-13T04:06:42.292Z,1.70
2019-01-13T04:09:23.226Z,1.70
2019-01-13T04:12:04.021Z,1.60
2019-01-13T04:14:44.812Z,1.50
2019-01-13T04:17:25.554Z,1.60
2019-01-13T04:20:06.270Z,1.60
2019-01-13T04:22:47.002Z,1.70
2019-01-13T04:25:27.486Z,1.70
2019-01-13T04:28:07.964Z,1.80
2019-01-13T04:30:48.574Z,1.90
2019-01-13T04:33:29.245Z,1.90
2019-01-13T04:36:09.501Z,2.00
2019-01-13T04:38:50.424Z,2.00
2019-01-13T04:41:31.362Z,2.00
2019-01-13T04:44:12.258Z,2.10
2019-01-13T04:46:53.129Z,2.10
2019-01-13T04:49:33.701Z,2.20
2019-01-13T04:52:14.158Z,2.20
2019-01-13T04:54:54.684Z,2.30
2019-01-13T04:57:35.568Z,2.30
2019-01-13T05:00:16.110Z,2.30
2019-01-13T05:02:56.508Z,2.30
2019-01-13T05:05:36.950Z,2.40
2019-01-13T05:08:17.338Z,2.40
2019-01-13T05:10:58.340Z,2.50
2019-01-13T05:13:39.390Z,2.50
2019-01-13T05:16:18.183Z,4.90
2019-01-13T05:19:06.076Z,2.50
2019-01-13T05:21:54.008Z,2.50
2019-01-13T05:24:41.827Z,2.50
2019-01-13T05:30:37.892Z,2.40
2019-01-13T05:33:25.687Z,2.50
2019-01-13T05:36:13.515Z,2.40
2019-01-13T05:41:48.887Z,2.40
2019-01-13T05:44:36.671Z,2.30
2019-01-13T05:47:24.495Z,2.30
2019-01-13T05:50:33.045Z,2.30
2019-01-13T05:53:20.836Z,2.20
2019-01-13T05:56:08.727Z,2.20
2019-01-13T05:58:56.553Z,2.30
2019-01-13T06:04:33.549Z,2.20
2019-01-13T06:07:21.355Z,2.10
2019-01-13T06:10:29.879Z,2.20
2019-01-13T06:13:11.051Z,2.10
2019-01-13T06:15:51.804Z,2.10
2019-01-13T06:21:31.411Z,2.20
2019-01-13T06:24:12.187Z,2.20
2019-01-13T06:26:53.017Z,2.20
2019-01-13T06:29:33.833Z,2.20
2019-01-13T06:32:14.241Z,2.30
2019-01-13T06:34:54.941Z,2.30
2019-01-13T06:37:35.281Z,2.30
2019-01-13T06:40:15.586Z,2.30
2019-01-13T06:45:55.361Z,2.40
2019-01-13T06:54:32.905Z,2.50
2019-01-13T06:57:13.607Z,2.50
2019-01-13T06:59:54.563Z,2.50
2019-01-13T07:02:35.602Z,2.50
2019-01-13T07:11:09.058Z,2.50
2019-01-13T07:13:49.800Z,2.50
2019-01-13T07:22:27.834Z,2.50
2019-01-13T07:25:08.447Z,2.50
2019-01-13T07:27:48.824Z,2.50
2019-01-13T07:36:26.854Z,2.60
2019-01-13T07:39:07.366Z,2.60
2019-01-13T07:41:47.769Z,2.60
2019-01-13T07:44:28.422Z,2.60
2019-01-13T07:53:06.236Z,2.90
2019-01-13T07:55:47.000Z,2.70
2019-01-13T07:58:27.770Z,2.80
2019-01-13T08:01:08.495Z,2.80
2019-01-13T08:03:49.538Z,2.80
2019-01-13T08:06:30.470Z,2.80
2019-01-13T08:09:11.507Z,2.80
2019-01-13T08:11:52.478Z,2.80
2019-01-13T08:14:33.424Z,3.00
2019-01-13T08:17:14.181Z,2.90
2019-01-13T08:22:53.030Z,2.90
2019-01-13T08:25:33.600Z,3.10
2019-01-13T08:28:14.335Z,3.00
2019-01-13T08:30:54.966Z,3.10
2019-01-13T08:33:35.356Z,3.00
2019-01-13T08:36:16.210Z,3.10
2019-01-13T08:45:08.171Z,3.00
2019-01-13T08:54:00.029Z,2.80
2019-01-13T08:56:40.479Z,2.80
2019-01-13T09:02:20.103Z,2.80
2019-01-13T09:05:00.933Z,2.80
2019-01-13T09:10:40.133Z,2.90
2019-01-13T09:13:20.615Z,2.90
2019-01-13T09:19:13.554Z,3.10
2019-01-13T09:21:54.123Z,3.10
2019-01-13T09:24:34.679Z,3.10
2019-01-13T09:27:17.741Z,3.10
2019-01-13T09:29:58.309Z,3.10
2019-01-13T09:32:39.490Z,3.30
2019-01-13T09:35:20.933Z,3.20
2019-01-13T09:38:01.305Z,3.20
2019-01-13T09:40:42.495Z,3.20
2019-01-13T09:43:23.273Z,3.20
2019-01-13T09:46:03.647Z,3.30
2019-01-13T09:48:44.303Z,3.30
2019-01-13T09:51:24.791Z,3.30
2019-01-13T09:54:05.809Z,3.30
2019-01-13T09:56:46.358Z,3.40
2019-01-13T09:59:26.863Z,3.40
2019-01-13T10:02:07.290Z,3.40
2019-01-13T10:10:59.354Z,3.20
2019-01-13T10:13:40.534Z,3.40
2019-01-13T10:16:21.179Z,3.40
2019-01-13T10:19:01.674Z,3.40
2019-01-13T10:24:55.574Z,3.50
2019-01-13T10:27:36.238Z,3.50
2019-01-13T10:30:16.851Z,3.40
2019-01-13T10:32:57.536Z,3.40
2019-01-13T10:38:51.410Z,3.50
2019-01-13T10:41:33.714Z,3.50
2019-01-13T10:44:17.702Z,3.50
2019-01-13T10:46:58.640Z,3.50
2019-01-13T10:49:39.332Z,3.50
2019-01-13T10:52:20.191Z,3.50
2019-01-13T10:55:00.868Z,3.60
2019-01-13T10:57:29.488Z,3.60
2019-01-13T10:59:58.908Z,3.70
2019-01-13T11:02:27.502Z,3.70
2019-01-13T11:04:56.094Z,3.80
2019-01-13T11:07:24.612Z,3.70
2019-01-13T11:09:53.120Z,3.70
2019-01-13T11:12:21.648Z,3.80
2019-01-13T11:14:50.256Z,3.80
2019-01-13T11:17:18.876Z,3.80
2019-01-13T11:19:47.520Z,3.80
2019-01-13T11:22:16.148Z,3.80
2019-01-13T11:24:46.084Z,3.80
2019-01-13T11:27:14.626Z,3.80
2019-01-13T11:29:43.168Z,3.90
2019-01-13T11:32:11.697Z,4.00
2019-01-13T11:34:40.544Z,4.10
2019-01-13T11:37:09.139Z,4.20
2019-01-13T11:39:37.665Z,4.10
2019-01-13T11:42:06.203Z,4.00
2019-01-13T11:44:34.831Z,3.80
2019-01-13T11:47:03.391Z,3.70
2019-01-13T11:49:32.143Z,3.70
2019-01-13T11:52:00.637Z,3.60
2019-01-13T11:54:29.553Z,3.50
2019-01-13T11:56:58.153Z,3.40
2019-01-13T11:59:26.763Z,3.40
2019-01-13T12:01:55.323Z,3.30
2019-01-13T12:04:25.817Z,3.20
2019-01-13T12:06:54.321Z,3.20
2019-01-13T12:09:22.879Z,3.20
2019-01-13T12:11:52.018Z,3.20
2019-01-13T12:14:21.970Z,3.20
2019-01-13T12:16:50.850Z,3.20
2019-01-13T12:19:19.413Z,3.20
2019-01-13T12:21:48.377Z,3.20
2019-01-13T12:24:17.519Z,3.20
2019-01-13T12:26:46.158Z,3.10
2019-01-13T12:29:14.844Z,3.10
2019-01-13T12:31:43.592Z,3.10
2019-01-13T12:34:14.497Z,3.10
2019-01-13T12:36:43.288Z,3.10
2019-01-13T12:39:12.435Z,3.00
2019-01-13T12:41:41.177Z,3.00
2019-01-13T12:44:11.634Z,3.00
2019-01-13T12:46:41.701Z,2.90
2019-01-13T12:49:10.933Z,2.90
2019-01-13T12:51:39.531Z,2.90
2019-01-13T12:54:10.977Z,2.80
2019-01-13T12:56:39.553Z,2.80
2019-01-13T12:59:08.115Z,2.80
2019-01-13T13:01:36.710Z,2.80
2019-01-13T13:04:05.318Z,2.80
2019-01-13T13:06:35.212Z,2.70
2019-01-13T13:09:08.920Z,2.70
2019-01-13T13:11:37.475Z,2.70
2019-01-13T13:14:09.195Z,2.70
2019-01-13T13:16:39.842Z,2.70
2019-01-13T13:19:08.399Z,2.70
2019-01-13T13:22:00.214Z,2.70
2019-01-13T13:24:30.047Z,2.70
2019-01-13T13:26:58.625Z,2.60
2019-01-13T13:29:27.445Z,2.60
2019-01-13T13:31:58.097Z,2.60
2019-01-13T13:34:26.665Z,2.60
2019-01-13T13:36:55.269Z,2.50
2019-01-13T13:39:27.256Z,2.50
2019-01-13T13:41:55.811Z,2.50
2019-01-13T13:44:26.025Z,2.50
2019-01-13T13:46:55.427Z,2.50
2019-01-13T13:49:25.537Z,2.50
2019-01-13T13:51:55.508Z,2.50
2019-01-13T13:54:24.424Z,2.50
2019-01-13T13:56:57.269Z,2.40
2019-01-13T13:59:32.813Z,2.50
2019-01-13T14:02:01.295Z,2.50
2019-01-13T14:04:30.130Z,2.50
2019-01-13T14:06:58.674Z,2.60
2019-01-13T14:09:27.175Z,2.60
2019-01-13T14:14:48.114Z,2.60
2019-01-13T14:17:17.650Z,2.60
2019-01-13T14:19:47.925Z,2.60
2019-01-13T14:22:16.433Z,2.50
2019-01-13T14:24:45.896Z,2.60
2019-01-13T14:27:14.548Z,2.60
2019-01-13T14:29:43.226Z,2.50
2019-01-13T14:32:11.950Z,2.60
2019-01-13T14:34:41.087Z,2.70
2019-01-13T14:37:21.516Z,2.70
2019-01-13T14:39:48.552Z,2.70
2019-01-13T14:42:13.521Z,2.70
2019-01-13T14:44:42.397Z,2.60
2019-01-13T14:47:11.538Z,2.60
2019-01-13T14:49:41.307Z,2.60
2019-01-13T14:52:09.924Z,2.70
2019-01-13T14:54:40.043Z,2.70
2019-01-13T14:57:08.662Z,2.60
2019-01-13T14:59:38.749Z,2.60
2019-01-13T15:02:08.636Z,2.80
2019-01-13T15:04:37.244Z,2.40
2019-01-13T15:07:11.130Z,2.60
2019-01-13T15:09:41.009Z,2.80
2019-01-13T15:12:13.050Z,2.80
2019-01-13T15:14:41.504Z,2.30
2019-01-13T15:17:10.166Z,2.60
2019-01-13T15:19:39.802Z,2.70
2019-01-13T15:22:12.012Z,2.90
2019-01-13T15:24:40.632Z,3.00
2019-01-13T15:27:12.072Z,2.80
2019-01-13T15:29:40.724Z,2.70
2019-01-13T15:32:10.426Z,2.80
2019-01-13T15:34:46.713Z,2.90
2019-01-13T15:37:16.569Z,2.70
2019-01-13T15:39:45.132Z,2.70
2019-01-13T15:42:13.998Z,2.60
2019-01-13T15:44:44.422Z,2.80
2019-01-13T15:47:13.874Z,2.80
2019-01-13T15:49:42.438Z,2.70
2019-01-13T15:52:13.257Z,2.90
2019-01-13T15:54:41.481Z,2.80
2019-01-13T15:57:11.046Z,2.90
2019-01-13T18:48:38.619Z,4.20
2019-01-13T18:53:38.001Z,4.30
2019-01-13T18:56:11.524Z,4.10
2019-01-13T18:58:41.870Z,4.00
2019-01-13T19:06:14.261Z,4.20
2019-01-13T19:08:48.897Z,4.20
2019-01-13T19:11:19.081Z,4.10
2019-01-13T19:13:56.432Z,4.20
2019-01-13T19:16:25.077Z,4.30
2019-01-13T19:18:53.785Z,4.40
2019-01-13T19:23:50.768Z,4.20
2019-01-13T19:26:21.177Z,4.20
2019-01-13T19:28:49.856Z,4.40
2019-01-13T19:31:18.739Z,4.40
2019-01-13T19:36:18.303Z,4.30
2019-01-13T19:38:49.080Z,4.40
2019-01-13T19:46:16.210Z,4.50
2019-01-13T19:48:46.015Z,4.50
2019-01-13T19:51:14.599Z,4.80
2019-01-13T19:56:11.571Z,4.80
2019-01-13T20:01:09.990Z,4.70
2019-01-13T20:08:39.548Z,5.00
2019-01-13T20:11:09.890Z,4.90
2019-01-13T20:13:38.587Z,4.70
2019-01-13T20:18:40.241Z,4.90
2019-01-13T20:21:11.906Z,4.70
2019-01-13T20:23:41.577Z,5.00
2019-01-13T20:26:15.555Z,5.00
2019-01-13T20:28:46.163Z,5.00
2019-01-13T20:31:16.659Z,5.00
2019-01-13T20:33:45.351Z,5.50
2019-01-13T20:36:14.014Z,5.00
2019-01-13T20:38:45.523Z,5.30
2019-01-13T20:41:15.629Z,4.80
2019-01-13T20:43:44.364Z,5.20
2019-01-13T20:46:14.191Z,5.00
2019-01-13T20:48:43.599Z,5.20
2019-01-13T20:51:13.579Z,5.30
2019-01-13T20:53:42.154Z,5.10
2019-01-13T20:56:11.573Z,5.10
2019-01-13T20:58:43.538Z,5.10
2019-01-13T21:01:12.224Z,5.50
2019-01-13T21:03:42.259Z,5.40
2019-01-13T21:06:10.889Z,5.50
2019-01-13T21:11:08.524Z,5.70
2019-01-13T21:13:38.755Z,5.20
2019-01-13T21:16:08.894Z,5.50
2019-01-13T21:18:37.479Z,5.40
2019-01-13T21:21:06.527Z,5.90
2019-01-13T21:23:35.388Z,5.30
2019-01-13T21:28:33.332Z,5.20
2019-01-13T21:31:03.463Z,5.10
2019-01-13T21:33:32.165Z,5.20
2019-01-13T21:36:02.098Z,5.30
2019-01-13T21:38:33.704Z,5.30
2019-01-13T21:41:03.181Z,5.10
2019-01-13T21:43:38.008Z,4.80
2019-01-13T21:46:06.581Z,5.00
2019-01-13T21:48:36.330Z,5.40
2019-01-13T21:51:06.034Z,5.20
2019-01-13T21:56:04.312Z,5.50
2019-01-13T22:01:04.602Z,5.50
2019-01-13T22:03:33.190Z,5.50
2019-01-13T22:06:02.952Z,5.30
2019-01-13T22:08:31.622Z,5.70
2019-01-13T22:11:00.308Z,5.70
2019-01-13T22:13:28.875Z,5.60
2019-01-13T22:15:57.501Z,5.50
2019-01-13T22:18:26.092Z,5.50
2019-01-13T22:20:54.672Z,5.50
2019-01-13T22:25:52.084Z,5.60
2019-01-13T22:28:20.751Z,5.70
2019-01-13T22:33:17.630Z,5.80
2019-01-13T22:35:48.337Z,5.40
2019-01-13T22:38:16.418Z,5.50
2019-01-13T22:40:44.962Z,5.60
2019-01-13T22:43:14.222Z,5.40
2019-01-13T22:45:42.754Z,5.70
2019-01-13T22:48:11.336Z,5.70
2019-01-13T22:50:39.970Z,5.70
2019-01-13T22:53:08.448Z,5.20
2019-01-13T22:55:37.020Z,5.10
2019-01-13T22:58:06.703Z,5.10
2019-01-13T23:03:07.072Z,5.40
2019-01-13T23:05:35.547Z,5.30
2019-01-13T23:08:04.203Z,5.40
2019-01-13T23:10:32.692Z,5.50
2019-01-13T23:13:01.232Z,5.60
2019-01-13T23:15:29.757Z,5.90
2019-01-13T23:17:58.352Z,5.40
2019-01-13T23:20:26.979Z,5.60
2019-01-13T23:22:56.099Z,5.60
2019-01-13T23:25:24.650Z,5.50
2019-01-13T23:27:53.215Z,5.70
2019-01-13T23:30:21.682Z,5.50
2019-01-13T23:32:50.207Z,5.50
2019-01-13T23:35:18.703Z,5.50
2019-01-13T23:37:49.204Z,5.50
2019-01-13T23:40:17.689Z,5.50
2019-01-13T23:42:46.262Z,5.50
2019-01-13T23:45:14.816Z,5.50
2019-01-13T23:47:43.395Z,5.80
2019-01-13T23:50:12.143Z,6.00
2019-01-13T23:52:40.768Z,5.50
2019-01-13T23:55:09.429Z,5.50
2019-01-13T23:57:37.931Z,5.40
